Missouri River (Missouri), Hermann (06934500)

StateMissouriLatestUnknown (41600 cfs)
RiverMissouri RiverRatingObservedEstimated
Updated2022-09-25 21:30 (49 minutes ago)Flood - The river is flooding. Obstacles can be treacherous or deadly. The river should be avoided at this stage for casual trips and definitely for the inexperienced. Trips should be attempted only with protective gear and equipment.Flood(none)(none)
Discharge41600 cfs (median: 65000 cfs)High - The river is high and potentially dangerous, especially for the young and / or inexperienced. Normal stream obstacles are sometimes difficult to navigate. Extended distances can be attempted, but canoe travel may not be advisable.High(none)(none)
Height3.91 feetGood - Conditions are ideal for a canoe or kayak. Boats typically will drag on fewer than one-quarter of riffles, if at all, and portages are unnecessary or rare. Normal float lengths can be attempted without a problem.Good(none)(none)
TrendFalling (rising over 24 hours)Low - River is low but can still be floated. Some riffles are okay but most come with significant dragging and might need a portage. Float lengths should be reduced to accommodate low flow, dragging, and portages.Low(none)(none)
USGSExternal icon USGS Site (External icon Duck Duck Go Maps)Poor - River is too low to float comfortably. Most or all riffles will drag or must be portaged and some obstacles (such as slick shelf rock) cause undue problems. Avoid the river at this stage for casual paddling trips.Poor(none)(none)

Trending Data

Plot Image

Trips for Missouri River (Missouri), Hermann (06934500)

DateStartEndDistanceConditionDischargeHeightFishingDetails

A total of 0 rows are displayed.

Condition Descriptions

Fishing Conditions

Fish Species

Notes

Classic Trip List

The classic River Trips application is still available for use. It is updated with the new system using a data retrofit. It is no longer maintained. The original River Trips application is no longer updated (as of 1 Dec 2016) but can be checked for errors or for the condition of the data before it was converted to the new system.

Gauge Data Table

ObservationHeightDischargeMaximum
Discharge
Minimum
Discharge
Mean
Discharge
P05P10P20P25P50
(Median)
P75P80P90P95
2022-09-25 21:30 3.91 41600 375000 (1993) 36500 (1963) 87000 40700 44200 46600 48900 65000 93100 101000 182000 275000
2022-09-25 20:30 3.92 41700 375000 (1993) 36500 (1963) 87000 40700 44200 46600 48900 65000 93100 101000 182000 275000
2022-09-25 19:30 3.91 41600 375000 (1993) 36500 (1963) 87000 40700 44200 46600 48900 65000 93100 101000 182000 275000
2022-09-25 18:30 3.90 41600 375000 (1993) 36500 (1963) 87000 40700 44200 46600 48900 65000 93100 101000 182000 275000
2022-09-25 17:30 3.90 41600 375000 (1993) 36500 (1963) 87000 40700 44200 46600 48900 65000 93100 101000 182000 275000
2022-09-25 16:30 3.83 41200 375000 (1993) 36500 (1963) 87000 40700 44200 46600 48900 65000 93100 101000 182000 275000
2022-09-25 15:30 3.86 41400 375000 (1993) 36500 (1963) 87000 40700 44200 46600 48900 65000 93100 101000 182000 275000
2022-09-25 14:30 3.87 41400 375000 (1993) 36500 (1963) 87000 40700 44200 46600 48900 65000 93100 101000 182000 275000
2022-09-25 13:30 3.80 41000 375000 (1993) 36500 (1963) 87000 40700 44200 46600 48900 65000 93100 101000 182000 275000
2022-09-25 12:30 3.85 41300 375000 (1993) 36500 (1963) 87000 40700 44200 46600 48900 65000 93100 101000 182000 275000
2022-09-25 11:30 3.82 41100 375000 (1993) 36500 (1963) 87000 40700 44200 46600 48900 65000 93100 101000 182000 275000
2022-09-25 10:30 3.88 41500 375000 (1993) 36500 (1963) 87000 40700 44200 46600 48900 65000 93100 101000 182000 275000
2022-09-25 09:30 3.89 41500 375000 (1993) 36500 (1963) 87000 40700 44200 46600 48900 65000 93100 101000 182000 275000
2022-09-25 08:30 3.88 41500 375000 (1993) 36500 (1963) 87000 40700 44200 46600 48900 65000 93100 101000 182000 275000
2022-09-25 07:30 3.85 41300 375000 (1993) 36500 (1963) 87000 40700 44200 46600 48900 65000 93100 101000 182000 275000
2022-09-25 06:30 3.90 41600 375000 (1993) 36500 (1963) 87000 40700 44200 46600 48900 65000 93100 101000 182000 275000
2022-09-25 05:30 3.89 41500 375000 (1993) 36500 (1963) 87000 40700 44200 46600 48900 65000 93100 101000 182000 275000
2022-09-25 04:30 3.90 41600 375000 (1993) 36500 (1963) 87000 40700 44200 46600 48900 65000 93100 101000 182000 275000
2022-09-25 03:30 3.89 41500 375000 (1993) 36500 (1963) 87000 40700 44200 46600 48900 65000 93100 101000 182000 275000
2022-09-25 02:30 3.89 41500 375000 (1993) 36500 (1963) 87000 40700 44200 46600 48900 65000 93100 101000 182000 275000
2022-09-25 01:30 3.89 41500 375000 (1993) 36500 (1963) 87000 40700 44200 46600 48900 65000 93100 101000 182000 275000
2022-09-25 00:30 3.90 41600 375000 (1993) 36500 (1963) 87000 40700 44200 46600 48900 65000 93100 101000 182000 275000
2022-09-24 23:30 3.89 41500 363000 (1993) 36000 (1963) 84400 41400 44200 46400 48200 62800 90500 101000 149000 248000
2022-09-24 22:30 3.89 41500 363000 (1993) 36000 (1963) 84400 41400 44200 46400 48200 62800 90500 101000 149000 248000
2022-09-24 21:30 3.88 41500 363000 (1993) 36000 (1963) 84400 41400 44200 46400 48200 62800 90500 101000 149000 248000
2022-09-24 20:30 3.88 41500 363000 (1993) 36000 (1963) 84400 41400 44200 46400 48200 62800 90500 101000 149000 248000
2022-09-24 19:30 3.87 41400 363000 (1993) 36000 (1963) 84400 41400 44200 46400 48200 62800 90500 101000 149000 248000
2022-09-24 18:30 3.86 41400 363000 (1993) 36000 (1963) 84400 41400 44200 46400 48200 62800 90500 101000 149000 248000
2022-09-24 17:30 3.86 41400 363000 (1993) 36000 (1963) 84400 41400 44200 46400 48200 62800 90500 101000 149000 248000
2022-09-24 16:30 3.88 41500 363000 (1993) 36000 (1963) 84400 41400 44200 46400 48200 62800 90500 101000 149000 248000
2022-09-24 15:30 3.84 41300 363000 (1993) 36000 (1963) 84400 41400 44200 46400 48200 62800 90500 101000 149000 248000
2022-09-24 14:30 3.86 41400 363000 (1993) 36000 (1963) 84400 41400 44200 46400 48200 62800 90500 101000 149000 248000
2022-09-24 13:30 3.87 41400 363000 (1993) 36000 (1963) 84400 41400 44200 46400 48200 62800 90500 101000 149000 248000
2022-09-24 12:30 3.86 41400 363000 (1993) 36000 (1963) 84400 41400 44200 46400 48200 62800 90500 101000 149000 248000
2022-09-24 11:30 3.86 41400 363000 (1993) 36000 (1963) 84400 41400 44200 46400 48200 62800 90500 101000 149000 248000
2022-09-24 10:30 3.82 41100 363000 (1993) 36000 (1963) 84400 41400 44200 46400 48200 62800 90500 101000 149000 248000
2022-09-24 09:30 3.80 41000 363000 (1993) 36000 (1963) 84400 41400 44200 46400 48200 62800 90500 101000 149000 248000
2022-09-24 08:30 3.83 41200 363000 (1993) 36000 (1963) 84400 41400 44200 46400 48200 62800 90500 101000 149000 248000
2022-09-24 07:30 3.83 41200 363000 (1993) 36000 (1963) 84400 41400 44200 46400 48200 62800 90500 101000 149000 248000
2022-09-24 06:30 3.83 41200 363000 (1993) 36000 (1963) 84400 41400 44200 46400 48200 62800 90500 101000 149000 248000
2022-09-24 05:30 3.83 41200 363000 (1993) 36000 (1963) 84400 41400 44200 46400 48200 62800 90500 101000 149000 248000
2022-09-24 04:30 3.77 40900 363000 (1993) 36000 (1963) 84400 41400 44200 46400 48200 62800 90500 101000 149000 248000
2022-09-24 03:30 3.82 41100 363000 (1993) 36000 (1963) 84400 41400 44200 46400 48200 62800 90500 101000 149000 248000
2022-09-24 02:30 3.82 41100 363000 (1993) 36000 (1963) 84400 41400 44200 46400 48200 62800 90500 101000 149000 248000
2022-09-24 01:30 3.81 41100 363000 (1993) 36000 (1963) 84400 41400 44200 46400 48200 62800 90500 101000 149000 248000
2022-09-24 00:30 3.78 40900 363000 (1993) 36000 (1963) 84400 41400 44200 46400 48200 62800 90500 101000 149000 248000
2022-09-23 23:30 3.70 40500 324000 (1993) 37100 (1963) 80900 42500 44300 46700 49000 59900 90200 101000 135000 202000
2022-09-23 22:30 3.70 40500 324000 (1993) 37100 (1963) 80900 42500 44300 46700 49000 59900 90200 101000 135000 202000
2022-09-23 21:30 3.70 40500 324000 (1993) 37100 (1963) 80900 42500 44300 46700 49000 59900 90200 101000 135000 202000
2022-09-23 20:30 3.70 40500 324000 (1993) 37100 (1963) 80900 42500 44300 46700 49000 59900 90200 101000 135000 202000
2022-09-23 19:30 3.71 40600 324000 (1993) 37100 (1963) 80900 42500 44300 46700 49000 59900 90200 101000 135000 202000
2022-09-23 18:30 3.70 40500 324000 (1993) 37100 (1963) 80900 42500 44300 46700 49000 59900 90200 101000 135000 202000
2022-09-23 17:30 3.73 40700 324000 (1993) 37100 (1963) 80900 42500 44300 46700 49000 59900 90200 101000 135000 202000
2022-09-23 16:30 3.69 40500 324000 (1993) 37100 (1963) 80900 42500 44300 46700 49000 59900 90200 101000 135000 202000
2022-09-23 15:30 3.70 40500 324000 (1993) 37100 (1963) 80900 42500 44300 46700 49000 59900 90200 101000 135000 202000
2022-09-23 14:30 3.69 40500 324000 (1993) 37100 (1963) 80900 42500 44300 46700 49000 59900 90200 101000 135000 202000
2022-09-23 13:30 3.71 40600 324000 (1993) 37100 (1963) 80900 42500 44300 46700 49000 59900 90200 101000 135000 202000
2022-09-23 12:30 3.68 40400 324000 (1993) 37100 (1963) 80900 42500 44300 46700 49000 59900 90200 101000 135000 202000
2022-09-23 11:30 3.68 40400 324000 (1993) 37100 (1963) 80900 42500 44300 46700 49000 59900 90200 101000 135000 202000
2022-09-23 10:30 3.76 40800 324000 (1993) 37100 (1963) 80900 42500 44300 46700 49000 59900 90200 101000 135000 202000
2022-09-23 09:30 3.67 40400 324000 (1993) 37100 (1963) 80900 42500 44300 46700 49000 59900 90200 101000 135000 202000
2022-09-23 08:30 3.64 40200 324000 (1993) 37100 (1963) 80900 42500 44300 46700 49000 59900 90200 101000 135000 202000
2022-09-23 07:30 3.64 40200 324000 (1993) 37100 (1963) 80900 42500 44300 46700 49000 59900 90200 101000 135000 202000
2022-09-23 06:30 3.67 40400 324000 (1993) 37100 (1963) 80900 42500 44300 46700 49000 59900 90200 101000 135000 202000
2022-09-23 05:30 3.66 40300 324000 (1993) 37100 (1963) 80900 42500 44300 46700 49000 59900 90200 101000 135000 202000
2022-09-23 04:30 3.65 40300 324000 (1993) 37100 (1963) 80900 42500 44300 46700 49000 59900 90200 101000 135000 202000
2022-09-23 03:30 3.68 40400 324000 (1993) 37100 (1963) 80900 42500 44300 46700 49000 59900 90200 101000 135000 202000
2022-09-23 02:30 3.66 40300 324000 (1993) 37100 (1963) 80900 42500 44300 46700 49000 59900 90200 101000 135000 202000
2022-09-23 01:30 3.64 40200 324000 (1993) 37100 (1963) 80900 42500 44300 46700 49000 59900 90200 101000 135000 202000
2022-09-23 00:30 3.73 40700 324000 (1993) 37100 (1963) 80900 42500 44300 46700 49000 59900 90200 101000 135000 202000
2022-09-22 23:30 3.75 40800 240000 (1993) 38600 (1963) 78500 42100 43900 44800 47100 59800 93400 105000 137000 180000
2022-09-22 22:30 3.76 40800 240000 (1993) 38600 (1963) 78500 42100 43900 44800 47100 59800 93400 105000 137000 180000
2022-09-22 21:30 3.75 40800 240000 (1993) 38600 (1963) 78500 42100 43900 44800 47100 59800 93400 105000 137000 180000
2022-09-22 20:30 3.75 40800 240000 (1993) 38600 (1963) 78500 42100 43900 44800 47100 59800 93400 105000 137000 180000
2022-09-22 19:30 3.75 40800 240000 (1993) 38600 (1963) 78500 42100 43900 44800 47100 59800 93400 105000 137000 180000
2022-09-22 18:30 3.75 40800 240000 (1993) 38600 (1963) 78500 42100 43900 44800 47100 59800 93400 105000 137000 180000
2022-09-22 17:30 3.72 40600 240000 (1993) 38600 (1963) 78500 42100 43900 44800 47100 59800 93400 105000 137000 180000
2022-09-22 16:30 3.67 40400 240000 (1993) 38600 (1963) 78500 42100 43900 44800 47100 59800 93400 105000 137000 180000
2022-09-22 15:30 3.67 40400 240000 (1993) 38600 (1963) 78500 42100 43900 44800 47100 59800 93400 105000 137000 180000
2022-09-22 14:30 3.69 40500 240000 (1993) 38600 (1963) 78500 42100 43900 44800 47100 59800 93400 105000 137000 180000
2022-09-22 13:30 3.75 40800 240000 (1993) 38600 (1963) 78500 42100 43900 44800 47100 59800 93400 105000 137000 180000
2022-09-22 12:30 3.76 40800 240000 (1993) 38600 (1963) 78500 42100 43900 44800 47100 59800 93400 105000 137000 180000
2022-09-22 11:30 3.69 40500 240000 (1993) 38600 (1963) 78500 42100 43900 44800 47100 59800 93400 105000 137000 180000
2022-09-22 10:30 3.73 40700 240000 (1993) 38600 (1963) 78500 42100 43900 44800 47100 59800 93400 105000 137000 180000
2022-09-22 09:30 3.71 40600 240000 (1993) 38600 (1963) 78500 42100 43900 44800 47100 59800 93400 105000 137000 180000
2022-09-22 08:30 3.76 40800 240000 (1993) 38600 (1963) 78500 42100 43900 44800 47100 59800 93400 105000 137000 180000
2022-09-22 07:30 3.76 40800 240000 (1993) 38600 (1963) 78500 42100 43900 44800 47100 59800 93400 105000 137000 180000
2022-09-22 06:30 3.76 40800 240000 (1993) 38600 (1963) 78500 42100 43900 44800 47100 59800 93400 105000 137000 180000
2022-09-22 05:30 3.77 40900 240000 (1993) 38600 (1963) 78500 42100 43900 44800 47100 59800 93400 105000 137000 180000
2022-09-22 04:30 3.77 40900 240000 (1993) 38600 (1963) 78500 42100 43900 44800 47100 59800 93400 105000 137000 180000
2022-09-22 03:30 3.76 40800 240000 (1993) 38600 (1963) 78500 42100 43900 44800 47100 59800 93400 105000 137000 180000
2022-09-22 02:30 3.77 40900 240000 (1993) 38600 (1963) 78500 42100 43900 44800 47100 59800 93400 105000 137000 180000
2022-09-22 01:30 3.77 40900 240000 (1993) 38600 (1963) 78500 42100 43900 44800 47100 59800 93400 105000 137000 180000
2022-09-22 00:30 3.77 40900 240000 (1993) 38600 (1963) 78500 42100 43900 44800 47100 59800 93400 105000 137000 180000
2022-09-21 23:30 3.78 40900 239000 (1993) 36300 (1959) 79500 39500 42700 46200 46900 59800 101000 108000 136000 179000
2022-09-21 22:30 3.78 40900 239000 (1993) 36300 (1959) 79500 39500 42700 46200 46900 59800 101000 108000 136000 179000
2022-09-21 21:30 3.78 40900 239000 (1993) 36300 (1959) 79500 39500 42700 46200 46900 59800 101000 108000 136000 179000
2022-09-21 20:30 3.78 40900 239000 (1993) 36300 (1959) 79500 39500 42700 46200 46900 59800 101000 108000 136000 179000
2022-09-21 19:30 3.74 40700 239000 (1993) 36300 (1959) 79500 39500 42700 46200 46900 59800 101000 108000 136000 179000
2022-09-21 18:30 3.77 40900 239000 (1993) 36300 (1959) 79500 39500 42700 46200 46900 59800 101000 108000 136000 179000
2022-09-21 17:30 3.79 41000 239000 (1993) 36300 (1959) 79500 39500 42700 46200 46900 59800 101000 108000 136000 179000
2022-09-21 16:30 3.78 40900 239000 (1993) 36300 (1959) 79500 39500 42700 46200 46900 59800 101000 108000 136000 179000
2022-09-21 15:30 3.80 41000 239000 (1993) 36300 (1959) 79500 39500 42700 46200 46900 59800 101000 108000 136000 179000
2022-09-21 14:30 3.74 40700 239000 (1993) 36300 (1959) 79500 39500 42700 46200 46900 59800 101000 108000 136000 179000
2022-09-21 13:30 3.70 40500 239000 (1993) 36300 (1959) 79500 39500 42700 46200 46900 59800 101000 108000 136000 179000
2022-09-21 12:30 3.70 40500 239000 (1993) 36300 (1959) 79500 39500 42700 46200 46900 59800 101000 108000 136000 179000
2022-09-21 11:30 3.70 40500 239000 (1993) 36300 (1959) 79500 39500 42700 46200 46900 59800 101000 108000 136000 179000
2022-09-21 10:30 3.78 40900 239000 (1993) 36300 (1959) 79500 39500 42700 46200 46900 59800 101000 108000 136000 179000
2022-09-21 09:30 3.77 40900 239000 (1993) 36300 (1959) 79500 39500 42700 46200 46900 59800 101000 108000 136000 179000
2022-09-21 08:30 3.77 40900 239000 (1993) 36300 (1959) 79500 39500 42700 46200 46900 59800 101000 108000 136000 179000
2022-09-21 07:30 3.79 41000 239000 (1993) 36300 (1959) 79500 39500 42700 46200 46900 59800 101000 108000 136000 179000
2022-09-21 06:30 3.79 41000 239000 (1993) 36300 (1959) 79500 39500 42700 46200 46900 59800 101000 108000 136000 179000
2022-09-21 05:30 3.79 41000 239000 (1993) 36300 (1959) 79500 39500 42700 46200 46900 59800 101000 108000 136000 179000
2022-09-21 04:30 3.79 41000 239000 (1993) 36300 (1959) 79500 39500 42700 46200 46900 59800 101000 108000 136000 179000
2022-09-21 03:30 3.79 41000 239000 (1993) 36300 (1959) 79500 39500 42700 46200 46900 59800 101000 108000 136000 179000
2022-09-21 02:30 3.80 41000 239000 (1993) 36300 (1959) 79500 39500 42700 46200 46900 59800 101000 108000 136000 179000
2022-09-21 01:30 3.80 41000 239000 (1993) 36300 (1959) 79500 39500 42700 46200 46900 59800 101000 108000 136000 179000
2022-09-21 00:30 3.80 41000 239000 (1993) 36300 (1959) 79500 39500 42700 46200 46900 59800 101000 108000 136000 179000
2022-09-20 23:30 3.80 41000 234000 (1993) 35800 (1959) 81500 38600 42900 45800 47800 63000 105000 111000 137000 204000
2022-09-20 22:30 3.81 41100 234000 (1993) 35800 (1959) 81500 38600 42900 45800 47800 63000 105000 111000 137000 204000
2022-09-20 21:30 3.81 41100 234000 (1993) 35800 (1959) 81500 38600 42900 45800 47800 63000 105000 111000 137000 204000
2022-09-20 20:30 3.81 41100 234000 (1993) 35800 (1959) 81500 38600 42900 45800 47800 63000 105000 111000 137000 204000
2022-09-20 19:30 3.82 41100 234000 (1993) 35800 (1959) 81500 38600 42900 45800 47800 63000 105000 111000 137000 204000
2022-09-20 18:30 3.83 41200 234000 (1993) 35800 (1959) 81500 38600 42900 45800 47800 63000 105000 111000 137000 204000
2022-09-20 17:30 3.82 41100 234000 (1993) 35800 (1959) 81500 38600 42900 45800 47800 63000 105000 111000 137000 204000
2022-09-20 16:30 3.86 41400 234000 (1993) 35800 (1959) 81500 38600 42900 45800 47800 63000 105000 111000 137000 204000
2022-09-20 15:30 3.83 41200 234000 (1993) 35800 (1959) 81500 38600 42900 45800 47800 63000 105000 111000 137000 204000
2022-09-20 14:30 3.85 41300 234000 (1993) 35800 (1959) 81500 38600 42900 45800 47800 63000 105000 111000 137000 204000
2022-09-20 13:30 3.85 41300 234000 (1993) 35800 (1959) 81500 38600 42900 45800 47800 63000 105000 111000 137000 204000
2022-09-20 12:30 3.85 41300 234000 (1993) 35800 (1959) 81500 38600 42900 45800 47800 63000 105000 111000 137000 204000
2022-09-20 11:30 3.85 41300 234000 (1993) 35800 (1959) 81500 38600 42900 45800 47800 63000 105000 111000 137000 204000
2022-09-20 10:30 3.85 41300 234000 (1993) 35800 (1959) 81500 38600 42900 45800 47800 63000 105000 111000 137000 204000
2022-09-20 09:30 3.87 41400 234000 (1993) 35800 (1959) 81500 38600 42900 45800 47800 63000 105000 111000 137000 204000
2022-09-20 08:30 3.86 41400 234000 (1993) 35800 (1959) 81500 38600 42900 45800 47800 63000 105000 111000 137000 204000
2022-09-20 07:30 3.87 41400 234000 (1993) 35800 (1959) 81500 38600 42900 45800 47800 63000 105000 111000 137000 204000
2022-09-20 06:30 3.87 41400 234000 (1993) 35800 (1959) 81500 38600 42900 45800 47800 63000 105000 111000 137000 204000
2022-09-20 05:30 3.88 41500 234000 (1993) 35800 (1959) 81500 38600 42900 45800 47800 63000 105000 111000 137000 204000
2022-09-20 04:30 3.88 41500 234000 (1993) 35800 (1959) 81500 38600 42900 45800 47800 63000 105000 111000 137000 204000
2022-09-20 03:30 3.88 41500 234000 (1993) 35800 (1959) 81500 38600 42900 45800 47800 63000 105000 111000 137000 204000
2022-09-20 02:30 3.89 41500 234000 (1993) 35800 (1959) 81500 38600 42900 45800 47800 63000 105000 111000 137000 204000
2022-09-20 01:30 3.88 41500 234000 (1993) 35800 (1959) 81500 38600 42900 45800 47800 63000 105000 111000 137000 204000
2022-09-20 00:30 3.88 41500 234000 (1993) 35800 (1959) 81500 38600 42900 45800 47800 63000 105000 111000 137000 204000
2022-09-19 23:30 3.89 41500 260000 (2008) 35800 (1959) 82400 38000 42800 44800 47300 64100 114000 116000 153000 176000
2022-09-19 22:30 3.89 41500 260000 (2008) 35800 (1959) 82400 38000 42800 44800 47300 64100 114000 116000 153000 176000
2022-09-19 21:30 3.90 41600 260000 (2008) 35800 (1959) 82400 38000 42800 44800 47300 64100 114000 116000 153000 176000
2022-09-19 20:30 3.90 41600 260000 (2008) 35800 (1959) 82400 38000 42800 44800 47300 64100 114000 116000 153000 176000
2022-09-19 19:30 3.90 41600 260000 (2008) 35800 (1959) 82400 38000 42800 44800 47300 64100 114000 116000 153000 176000
2022-09-19 18:30 3.90 41600 260000 (2008) 35800 (1959) 82400 38000 42800 44800 47300 64100 114000 116000 153000 176000
2022-09-19 17:30 3.91 41600 260000 (2008) 35800 (1959) 82400 38000 42800 44800 47300 64100 114000 116000 153000 176000
2022-09-19 16:30 3.91 41600 260000 (2008) 35800 (1959) 82400 38000 42800 44800 47300 64100 114000 116000 153000 176000
2022-09-19 15:30 3.92 41700 260000 (2008) 35800 (1959) 82400 38000 42800 44800 47300 64100 114000 116000 153000 176000
2022-09-19 14:30 3.91 41600 260000 (2008) 35800 (1959) 82400 38000 42800 44800 47300 64100 114000 116000 153000 176000
2022-09-19 13:30 3.86 41400 260000 (2008) 35800 (1959) 82400 38000 42800 44800 47300 64100 114000 116000 153000 176000
2022-09-19 12:30 3.86 41400 260000 (2008) 35800 (1959) 82400 38000 42800 44800 47300 64100 114000 116000 153000 176000
2022-09-19 11:30 3.91 41600 260000 (2008) 35800 (1959) 82400 38000 42800 44800 47300 64100 114000 116000 153000 176000
2022-09-19 10:30 3.90 41600 260000 (2008) 35800 (1959) 82400 38000 42800 44800 47300 64100 114000 116000 153000 176000
2022-09-19 09:30 3.91 41600 260000 (2008) 35800 (1959) 82400 38000 42800 44800 47300 64100 114000 116000 153000 176000
2022-09-19 08:30 3.91 41600 260000 (2008) 35800 (1959) 82400 38000 42800 44800 47300 64100 114000 116000 153000 176000
2022-09-19 07:30 3.92 41700 260000 (2008) 35800 (1959) 82400 38000 42800 44800 47300 64100 114000 116000 153000 176000
2022-09-19 06:30 3.92 41700 260000 (2008) 35800 (1959) 82400 38000 42800 44800 47300 64100 114000 116000 153000 176000
2022-09-19 05:30 3.92 41700 260000 (2008) 35800 (1959) 82400 38000 42800 44800 47300 64100 114000 116000 153000 176000
2022-09-19 04:30 3.92 41700 260000 (2008) 35800 (1959) 82400 38000 42800 44800 47300 64100 114000 116000 153000 176000
2022-09-19 03:30 3.93 41700 260000 (2008) 35800 (1959) 82400 38000 42800 44800 47300 64100 114000 116000 153000 176000
2022-09-19 02:30 3.93 41700 260000 (2008) 35800 (1959) 82400 38000 42800 44800 47300 64100 114000 116000 153000 176000
2022-09-19 01:30 3.93 41700 260000 (2008) 35800 (1959) 82400 38000 42800 44800 47300 64100 114000 116000 153000 176000
2022-09-19 00:30 3.93 41700 260000 (2008) 35800 (1959) 82400 38000 42800 44800 47300 64100 114000 116000 153000 176000
2022-09-18 23:30 3.93 41700 289000 (2008) 36000 (1959) 83100 38900 42100 44800 46700 59900 100000 128000 151000 202000
2022-09-18 22:30 3.94 41800 289000 (2008) 36000 (1959) 83100 38900 42100 44800 46700 59900 100000 128000 151000 202000
2022-09-18 21:30 3.93 41700 289000 (2008) 36000 (1959) 83100 38900 42100 44800 46700 59900 100000 128000 151000 202000
2022-09-18 20:30 3.94 41800 289000 (2008) 36000 (1959) 83100 38900 42100 44800 46700 59900 100000 128000 151000 202000
2022-09-18 19:30 3.94 41800 289000 (2008) 36000 (1959) 83100 38900 42100 44800 46700 59900 100000 128000 151000 202000
2022-09-18 18:30 3.94 41800 289000 (2008) 36000 (1959) 83100 38900 42100 44800 46700 59900 100000 128000 151000 202000
2022-09-18 17:30 3.90 41600 289000 (2008) 36000 (1959) 83100 38900 42100 44800 46700 59900 100000 128000 151000 202000
2022-09-18 16:30 3.91 41600 289000 (2008) 36000 (1959) 83100 38900 42100 44800 46700 59900 100000 128000 151000 202000
2022-09-18 15:30 3.91 41600 289000 (2008) 36000 (1959) 83100 38900 42100 44800 46700 59900 100000 128000 151000 202000
2022-09-18 14:30 3.88 41500 289000 (2008) 36000 (1959) 83100 38900 42100 44800 46700 59900 100000 128000 151000 202000
2022-09-18 13:30 3.90 41600 289000 (2008) 36000 (1959) 83100 38900 42100 44800 46700 59900 100000 128000 151000 202000
2022-09-18 12:30 3.86 41400 289000 (2008) 36000 (1959) 83100 38900 42100 44800 46700 59900 100000 128000 151000 202000
2022-09-18 11:30 3.88 41500 289000 (2008) 36000 (1959) 83100 38900 42100 44800 46700 59900 100000 128000 151000 202000
2022-09-18 10:30 3.92 41700 289000 (2008) 36000 (1959) 83100 38900 42100 44800 46700 59900 100000 128000 151000 202000
2022-09-18 09:30 3.86 41400 289000 (2008) 36000 (1959) 83100 38900 42100 44800 46700 59900 100000 128000 151000 202000
2022-09-18 08:30 3.83 41200 289000 (2008) 36000 (1959) 83100 38900 42100 44800 46700 59900 100000 128000 151000 202000
2022-09-18 07:30 3.82 41100 289000 (2008) 36000 (1959) 83100 38900 42100 44800 46700 59900 100000 128000 151000 202000
2022-09-18 06:30 3.89 41500 289000 (2008) 36000 (1959) 83100 38900 42100 44800 46700 59900 100000 128000 151000 202000
2022-09-18 05:30 3.89 41500 289000 (2008) 36000 (1959) 83100 38900 42100 44800 46700 59900 100000 128000 151000 202000
2022-09-18 04:30 3.89 41500 289000 (2008) 36000 (1959) 83100 38900 42100 44800 46700 59900 100000 128000 151000 202000
2022-09-18 03:30 3.84 41300 289000 (2008) 36000 (1959) 83100 38900 42100 44800 46700 59900 100000 128000 151000 202000
2022-09-18 02:30 3.89 41500 289000 (2008) 36000 (1959) 83100 38900 42100 44800 46700 59900 100000 128000 151000 202000
2022-09-18 01:30 3.89 41500 289000 (2008) 36000 (1959) 83100 38900 42100 44800 46700 59900 100000 128000 151000 202000
2022-09-18 00:30 3.89 41500 289000 (2008) 36000 (1959) 83100 38900 42100 44800 46700 59900 100000 128000 151000 202000

A total of 190 rows are displayed for years 1958 through 2021.